Time;durP1;ratioP1;P1;durP2;ratioP2;P2;SDS_P1;SDS_P2;PMS_P1;PMS_P2;Temp;Humidity;BMP_temperature;BMP_pressure;BME280_temperature;BME280_humidity;BME280_pressure;Samples;Min_cycle;Max_cycle;Signal;HPM_P1;HPM_P2
2023/05/09 00:00:33;;;;;;;1.03;0.70;;;20.90;99.90;;;;;;4947009;29;20205;-91
2023/05/09 00:03:05;;;;;;;1.07;0.70;;;20.70;99.90;;;;;;4950514;29;20216;-90
2023/05/09 00:05:39;;;;;;;3.50;0.60;;;20.40;99.90;;;;;;4947483;29;20248;-89
2023/05/09 00:08:10;;;;;;;2.47;0.70;;;20.60;99.90;;;;;;4944756;29;20220;-90
2023/05/09 00:10:41;;;;;;;1.03;0.60;;;20.60;99.90;;;;;;4945186;29;20264;-91
2023/05/09 00:13:12;;;;;;;1.27;0.60;;;20.50;99.90;;;;;;4957846;28;20223;-91
2023/05/09 00:15:44;;;;;;;1.10;0.70;;;20.00;99.90;;;;;;4947372;29;20259;-90
2023/05/09 00:18:14;;;;;;;0.50;0.50;;;20.00;99.90;;;;;;4942720;29;20708;-91
2023/05/09 00:20:47;;;;;;;1.97;0.67;;;20.20;99.90;;;;;;4945717;29;20564;-91
2023/05/09 00:23:19;;;;;;;1.67;0.77;;;20.40;99.90;;;;;;4947389;29;20213;-91
2023/05/09 00:25:50;;;;;;;2.40;0.70;;;20.50;99.90;;;;;;4943820;29;20223;-92
2023/05/09 00:28:21;;;;;;;1.60;0.50;;;20.50;99.90;;;;;;4945683;29;20212;-91
2023/05/09 00:30:52;;;;;;;1.87;0.60;;;20.20;99.90;;;;;;4948402;29;20208;-92
2023/05/09 00:33:25;;;;;;;2.30;0.70;;;20.40;99.90;;;;;;4945844;28;20212;-91
2023/05/09 00:35:59;;;;;;;2.23;0.87;;;20.40;99.90;;;;;;4949162;29;20212;-91
2023/05/09 00:38:30;;;;;;;1.20;0.60;;;20.20;99.90;;;;;;4951098;29;20316;-91
2023/05/09 00:41:01;;;;;;;1.03;0.50;;;20.20;99.90;;;;;;4952339;29;20208;-92
2023/05/09 00:43:33;;;;;;;1.10;0.50;;;20.20;99.90;;;;;;4955409;29;20203;-90
2023/05/09 00:46:08;;;;;;;1.77;0.70;;;20.40;99.90;;;;;;4953038;29;20209;-92
2023/05/09 00:48:39;;;;;;;1.10;0.50;;;20.50;99.90;;;;;;4954002;29;20694;-91
2023/05/09 00:51:12;;;;;;;1.23;0.60;;;20.30;99.90;;;;;;4952169;29;20287;-90
2023/05/09 00:53:43;;;;;;;2.70;0.60;;;20.40;99.90;;;;;;4953643;29;20204;-92
2023/05/09 00:56:15;;;;;;;1.60;0.73;;;20.30;99.90;;;;;;4952201;29;20235;-93
2023/05/09 00:58:47;;;;;;;2.20;0.80;;;20.50;99.90;;;;;;4947431;29;20236;-91
2023/05/09 01:01:18;;;;;;;0.57;0.50;;;20.40;99.90;;;;;;4940809;29;20216;-90
2023/05/09 01:03:49;;;;;;;1.23;0.50;;;20.20;99.90;;;;;;4947822;29;20220;-90
2023/05/09 01:06:31;;;;;;;1.67;0.83;;;20.70;99.90;;;;;;4950397;29;20276;-91
2023/05/09 01:09:12;;;;;;;0.67;0.60;;;21.10;99.90;;;;;;4934248;29;20212;-92
2023/05/09 01:11:50;;;;;;;2.13;0.90;;;21.90;99.90;;;;;;4942843;29;20281;-91
2023/05/09 01:14:31;;;;;;;2.50;0.80;;;22.00;99.90;;;;;;4952220;29;20244;-89
2023/05/09 01:17:07;;;;;;;0.97;0.50;;;22.20;99.90;;;;;;4949053;29;20240;-92
2023/05/09 01:20:00;;;;;;;0.67;0.50;;;22.40;99.90;;;;;;4948889;29;20208;-90
2023/05/09 01:22:37;;;;;;;1.60;1.00;;;22.60;99.90;;;;;;4942578;29;20216;-90
2023/05/09 01:25:22;;;;;;;1.37;0.70;;;22.60;99.90;;;;;;4937984;29;20232;-89
2023/05/09 01:28:06;;;;;;;2.53;0.67;;;22.70;99.90;;;;;;4939858;29;20200;-95
2023/05/09 01:30:43;;;;;;;1.00;0.67;;;22.60;99.90;;;;;;4942321;29;20204;-96
2023/05/09 01:33:18;;;;;;;0.67;0.53;;;22.90;99.90;;;;;;4959277;29;20203;-95
2023/05/09 01:35:53;;;;;;;3.37;2.17;;;22.20;99.90;;;;;;4952582;29;20214;-96
2023/05/09 01:38:31;;;;;;;1.13;0.67;;;22.30;99.90;;;;;;4941972;29;20260;-95
2023/05/09 01:41:10;;;;;;;0.73;0.60;;;21.70;99.90;;;;;;4952513;29;20239;-93
2023/05/09 01:43:44;;;;;;;1.00;0.63;;;21.10;99.90;;;;;;4959833;29;20251;-94
2023/05/09 01:46:20;;;;;;;1.00;0.80;;;20.60;99.90;;;;;;4954176;29;20199;-95
2023/05/09 01:48:53;;;;;;;1.03;0.70;;;20.40;99.90;;;;;;4949648;29;20205;-94
2023/05/09 01:51:28;;;;;;;1.13;0.63;;;20.10;99.90;;;;;;4951346;29;20279;-95
2023/05/09 01:54:01;;;;;;;0.70;0.40;;;19.50;99.90;;;;;;4957419;29;20208;-93
2023/05/09 01:56:35;;;;;;;1.57;0.50;;;19.20;99.90;;;;;;4961449;29;20239;-96
2023/05/09 01:59:08;;;;;;;0.97;0.40;;;19.00;99.90;;;;;;4949643;29;20753;-95
2023/05/09 02:01:46;;;;;;;0.77;0.63;;;18.70;99.90;;;;;;4953208;29;20215;-94
2023/05/09 02:04:20;;;;;;;1.00;0.50;;;18.30;99.90;;;;;;4956452;29;20211;-96
2023/05/09 02:06:52;;;;;;;1.00;0.73;;;18.20;99.90;;;;;;4951173;28;20192;-95
2023/05/09 02:09:26;;;;;;;1.27;0.67;;;18.10;99.90;;;;;;4950315;29;20212;-94
2023/05/09 02:11:58;;;;;;;1.83;0.93;;;18.00;99.90;;;;;;4941304;29;20245;-96
2023/05/09 02:14:31;;;;;;;2.37;0.60;;;17.70;99.90;;;;;;4958116;29;20207;-95
2023/05/09 02:17:08;;;;;;;2.53;0.70;;;17.60;99.90;;;;;;4953343;29;20303;-95
2023/05/09 02:19:42;;;;;;;1.20;0.70;;;17.60;99.90;;;;;;4948244;29;20220;-95
2023/05/09 02:22:15;;;;;;;0.70;0.50;;;17.50;99.90;;;;;;4947478;29;20236;-96
2023/05/09 02:24:47;;;;;;;2.30;0.83;;;17.20;99.90;;;;;;4950682;29;20200;-95
2023/05/09 02:27:19;;;;;;;0.90;0.50;;;17.10;99.90;;;;;;4948208;29;20213;-94
2023/05/09 02:29:56;;;;;;;0.70;0.70;;;16.90;99.90;;;;;;4949027;29;20227;-95
2023/05/09 02:32:32;;;;;;;1.63;0.53;;;16.80;99.90;;;;;;4956233;29;20207;-92
2023/05/09 02:35:04;;;;;;;2.53;0.90;;;16.70;99.90;;;;;;4952959;29;20222;-94
2023/05/09 02:37:37;;;;;;;5.37;0.83;;;16.50;99.90;;;;;;4955377;29;20224;-97
2023/05/09 02:40:10;;;;;;;0.83;0.50;;;16.40;99.90;;;;;;4952051;29;20651;-95
2023/05/09 02:42:42;;;;;;;2.07;0.67;;;16.30;99.90;;;;;;4948334;28;20212;-92
2023/05/09 02:45:14;;;;;;;1.70;0.70;;;16.20;99.90;;;;;;4940609;29;20213;-93
2023/05/09 02:47:48;;;;;;;0.90;0.67;;;16.10;99.90;;;;;;4940264;28;20279;-92
2023/05/09 02:50:20;;;;;;;0.57;0.57;;;16.00;99.90;;;;;;4938274;29;20220;-92
2023/05/09 02:52:52;;;;;;;1.50;1.00;;;15.90;99.90;;;;;;4941795;28;20216;-94
2023/05/09 02:55:23;;;;;;;1.00;0.60;;;15.80;99.90;;;;;;4943441;29;20216;-94
2023/05/09 02:57:55;;;;;;;1.17;0.70;;;15.70;99.90;;;;;;4937720;29;20244;-96
2023/05/09 03:00:43;;;;;;;1.87;1.00;;;15.60;99.90;;;;;;4944574;29;20217;-96
2023/05/09 03:03:17;;;;;;;1.50;0.87;;;15.60;99.90;;;;;;4940802;29;20583;-96
2023/05/09 03:05:50;;;;;;;2.53;0.80;;;15.50;99.90;;;;;;4941874;29;20673;-96
2023/05/09 03:08:22;;;;;;;0.70;0.70;;;15.40;99.90;;;;;;4940379;29;20753;-96
2023/05/09 03:10:54;;;;;;;1.80;1.10;;;15.20;99.90;;;;;;4942903;28;20227;-96
2023/05/09 03:13:26;;;;;;;1.13;0.80;;;15.20;99.90;;;;;;4942822;29;20212;-96
2023/05/09 03:15:58;;;;;;;4.73;1.30;;;15.00;99.90;;;;;;4924906;29;20233;-96
2023/05/09 03:18:32;;;;;;;3.60;1.10;;;14.90;99.90;;;;;;4924732;29;20229;-96
2023/05/09 03:21:06;;;;;;;1.63;0.80;;;14.90;99.90;;;;;;4935689;29;20216;-96
2023/05/09 03:23:40;;;;;;;2.40;1.00;;;14.80;99.90;;;;;;4923815;29;20272;-96
2023/05/09 03:26:16;;;;;;;5.10;1.30;;;14.60;99.90;;;;;;4923850;29;20253;-94
2023/05/09 03:28:49;;;;;;;2.10;1.30;;;14.50;99.90;;;;;;4924349;29;20228;-96
2023/05/09 03:31:21;;;;;;;2.83;1.33;;;14.50;99.90;;;;;;4941287;29;20212;-95
2023/05/09 03:33:56;;;;;;;3.37;1.20;;;14.40;99.90;;;;;;4940643;29;20217;-96
2023/05/09 03:36:28;;;;;;;1.03;0.73;;;14.30;99.90;;;;;;4942552;29;20201;-95
2023/05/09 03:39:02;;;;;;;2.30;1.00;;;14.30;99.90;;;;;;4952615;29;20227;-95
2023/05/09 03:41:34;;;;;;;1.70;1.00;;;14.20;99.90;;;;;;4958900;28;20200;-96
2023/05/09 03:44:07;;;;;;;1.70;1.03;;;14.10;99.90;;;;;;4950546;29;20224;-96
2023/05/09 03:46:39;;;;;;;1.63;0.87;;;14.10;99.90;;;;;;4949276;29;20216;-95
2023/05/09 03:49:13;;;;;;;1.40;0.90;;;14.00;99.90;;;;;;4944322;29;20291;-96
2023/05/09 03:51:46;;;;;;;2.70;1.00;;;13.90;99.90;;;;;;4940320;29;20204;-95
2023/05/09 03:54:17;;;;;;;2.63;1.20;;;13.90;99.90;;;;;;4940130;28;20283;-95
2023/05/09 03:56:50;;;;;;;1.07;0.90;;;13.90;99.90;;;;;;4930583;28;20217;-94
2023/05/09 03:59:22;;;;;;;1.43;0.80;;;13.80;99.90;;;;;;4940128;29;20260;-95
2023/05/09 04:01:55;;;;;;;2.07;0.80;;;13.80;99.90;;;;;;4941347;28;20216;-94
2023/05/09 04:04:30;;;;;;;1.40;0.67;;;13.70;99.90;;;;;;4931020;29;20208;-93
2023/05/09 04:07:01;;;;;;;2.80;0.90;;;13.60;99.90;;;;;;4936333;28;20275;-93
2023/05/09 04:09:33;;;;;;;1.53;0.80;;;13.50;99.90;;;;;;4927729;29;20641;-94
2023/05/09 04:12:05;;;;;;;0.70;0.70;;;13.60;99.90;;;;;;4938532;29;20217;-95
2023/05/09 04:14:37;;;;;;;1.73;1.10;;;13.50;99.90;;;;;;4939537;29;20245;-95
2023/05/09 04:17:09;;;;;;;1.00;0.90;;;13.50;99.90;;;;;;4930955;29;20212;-94
2023/05/09 04:19:42;;;;;;;0.87;0.80;;;13.40;99.90;;;;;;4928565;29;20240;-95
2023/05/09 04:22:14;;;;;;;1.37;0.70;;;13.30;99.90;;;;;;4935131;29;20212;-95
2023/05/09 04:24:46;;;;;;;1.20;1.00;;;13.20;99.90;;;;;;4940417;28;20215;-94
2023/05/09 04:27:18;;;;;;;1.30;1.00;;;13.20;99.90;;;;;;4939642;29;20243;-95
2023/05/09 04:29:52;;;;;;;2.20;1.20;;;13.20;99.90;;;;;;4940067;29;20220;-95
2023/05/09 04:32:24;;;;;;;2.70;1.10;;;13.20;99.90;;;;;;4939495;29;20681;-92
2023/05/09 04:34:58;;;;;;;2.83;1.13;;;13.20;99.90;;;;;;4939578;29;20696;-94
2023/05/09 04:37:30;;;;;;;1.40;0.93;;;13.20;99.90;;;;;;4940255;29;20212;-94
2023/05/09 04:40:03;;;;;;;1.60;1.30;;;13.20;99.90;;;;;;4942255;28;20255;-95
2023/05/09 04:42:35;;;;;;;3.13;1.20;;;13.10;99.90;;;;;;4940176;28;20232;-95
2023/05/09 04:45:10;;;;;;;1.73;1.00;;;13.00;99.90;;;;;;4939600;29;20572;-94
2023/05/09 04:47:43;;;;;;;1.23;1.03;;;13.00;99.90;;;;;;4934598;29;20263;-95
2023/05/09 04:50:18;;;;;;;1.77;1.43;;;12.90;99.90;;;;;;4920460;29;20237;-95
2023/05/09 04:52:50;;;;;;;1.53;1.10;;;12.80;99.90;;;;;;4932936;29;20219;-96
2023/05/09 04:55:23;;;;;;;1.30;1.20;;;12.80;99.90;;;;;;4938959;29;20204;-95
2023/05/09 04:57:54;;;;;;;1.80;1.30;;;12.70;99.90;;;;;;4927304;29;20228;-95
2023/05/09 05:00:27;;;;;;;2.40;1.10;;;12.70;99.90;;;;;;4934704;29;20236;-95
2023/05/09 05:02:58;;;;;;;1.43;1.20;;;12.60;99.90;;;;;;4940075;29;20267;-94
2023/05/09 05:05:32;;;;;;;1.43;1.30;;;12.60;99.90;;;;;;4924476;29;20217;-95
2023/05/09 05:08:07;;;;;;;1.50;1.07;;;12.40;99.90;;;;;;4920514;29;20573;-96
2023/05/09 05:10:40;;;;;;;2.17;1.20;;;12.30;99.90;;;;;;4932884;29;20216;-96
2023/05/09 05:13:13;;;;;;;1.07;0.97;;;12.30;99.90;;;;;;4941150;29;20296;-95
2023/05/09 05:15:45;;;;;;;1.47;0.97;;;12.30;99.90;;;;;;4938758;29;20333;-94
2023/05/09 05:18:16;;;;;;;1.57;1.20;;;12.30;99.90;;;;;;4928958;29;20721;-94
2023/05/09 05:20:51;;;;;;;2.50;1.00;;;12.30;99.90;;;;;;4938355;28;20633;-94
2023/05/09 05:23:24;;;;;;;1.53;0.87;;;12.20;99.90;;;;;;4940169;29;20207;-94
2023/05/09 05:25:56;;;;;;;1.10;1.00;;;12.20;99.90;;;;;;4942262;28;20552;-94
2023/05/09 05:28:28;;;;;;;1.07;0.83;;;12.20;99.90;;;;;;4942998;29;20200;-94
2023/05/09 05:31:00;;;;;;;0.80;0.80;;;12.20;99.90;;;;;;4943283;29;20263;-95
2023/05/09 05:33:32;;;;;;;1.13;0.87;;;12.20;99.90;;;;;;4938737;29;20216;-96
2023/05/09 05:36:09;;;;;;;0.80;0.80;;;12.20;99.90;;;;;;4944911;29;20259;-93
2023/05/09 05:38:41;;;;;;;1.00;0.83;;;12.30;99.90;;;;;;4942577;29;20204;-95
2023/05/09 05:41:14;;;;;;;1.00;0.70;;;12.30;99.90;;;;;;4942904;29;20239;-94
2023/05/09 05:43:46;;;;;;;1.37;0.90;;;12.30;99.90;;;;;;4937648;29;20216;-95
2023/05/09 05:46:21;;;;;;;0.80;0.80;;;12.20;99.90;;;;;;4943308;29;20220;-95
2023/05/09 05:48:52;;;;;;;0.90;0.70;;;12.20;99.90;;;;;;4961762;29;20180;-95
2023/05/09 05:51:27;;;;;;;1.60;0.70;;;12.20;99.90;;;;;;4955662;29;20213;-96
2023/05/09 05:53:59;;;;;;;2.13;0.63;;;12.10;99.90;;;;;;4956219;29;20208;-95
2023/05/09 05:56:31;;;;;;;1.37;0.70;;;12.10;99.90;;;;;;4957592;29;20201;-94
2023/05/09 05:59:04;;;;;;;1.13;0.70;;;12.10;99.90;;;;;;4945807;29;20208;-95
2023/05/09 06:01:37;;;;;;;1.60;0.60;;;12.00;99.90;;;;;;4952569;28;20220;-95
2023/05/09 06:04:08;;;;;;;1.43;0.80;;;12.00;99.90;;;;;;4944488;29;20231;-93
2023/05/09 06:06:42;;;;;;;1.97;0.60;;;11.90;99.90;;;;;;4942301;29;20232;-94
2023/05/09 06:09:15;;;;;;;1.47;0.60;;;11.90;99.90;;;;;;4938571;29;20667;-95
2023/05/09 06:11:48;;;;;;;1.20;0.90;;;11.90;99.90;;;;;;4940017;29;20208;-95
2023/05/09 06:14:20;;;;;;;1.00;0.77;;;11.80;99.90;;;;;;4935826;28;20213;-94
2023/05/09 06:16:52;;;;;;;1.20;0.67;;;11.80;99.90;;;;;;4936529;29;20244;-96
2023/05/09 06:19:25;;;;;;;1.70;0.83;;;11.70;99.90;;;;;;4940960;29;20267;-95
2023/05/09 06:21:58;;;;;;;0.97;0.70;;;11.60;99.90;;;;;;4927904;29;20201;-94
2023/05/09 06:24:30;;;;;;;0.87;0.70;;;11.40;99.90;;;;;;4940920;29;20208;-96
2023/05/09 06:27:06;;;;;;;0.90;0.67;;;11.40;99.90;;;;;;4931293;29;20260;-95
2023/05/09 06:29:38;;;;;;;1.37;0.60;;;11.30;99.90;;;;;;4922346;29;20225;-94
2023/05/09 06:32:09;;;;;;;2.23;0.87;;;11.30;99.90;;;;;;4923740;29;20213;-95
2023/05/09 06:34:42;;;;;;;3.10;0.90;;;11.20;99.90;;;;;;4926857;29;20244;-95
2023/05/09 06:37:17;;;;;;;1.57;0.70;;;11.10;99.90;;;;;;4939892;29;20208;-93
2023/05/09 06:39:49;;;;;;;0.70;0.60;;;11.10;99.90;;;;;;4939731;29;20255;-94
2023/05/09 06:42:21;;;;;;;1.20;0.60;;;11.00;99.90;;;;;;4940381;29;20236;-96
2023/05/09 06:44:54;;;;;;;2.10;0.80;;;11.00;99.90;;;;;;4942019;29;20208;-94
2023/05/09 06:47:27;;;;;;;1.33;0.73;;;10.90;99.90;;;;;;4941081;28;20659;-95
2023/05/09 06:49:59;;;;;;;2.07;0.80;;;10.90;99.90;;;;;;4925629;29;20654;-94
2023/05/09 06:52:33;;;;;;;1.97;0.70;;;10.90;99.90;;;;;;4942696;29;20210;-94
2023/05/09 06:55:05;;;;;;;3.00;0.80;;;10.90;99.90;;;;;;4938576;29;20207;-94
2023/05/09 06:57:37;;;;;;;1.20;0.73;;;10.80;99.90;;;;;;4941192;28;20225;-95
2023/05/09 07:00:10;;;;;;;1.17;0.63;;;10.80;99.90;;;;;;4941492;28;20232;-96
2023/05/09 07:02:42;;;;;;;1.83;0.80;;;10.80;99.90;;;;;;4934928;29;20204;-95
2023/05/09 07:05:14;;;;;;;2.83;1.10;;;10.70;99.90;;;;;;4941023;29;20740;-94
2023/05/09 07:07:50;;;;;;;2.87;0.93;;;10.60;99.90;;;;;;4922259;29;20228;-95
2023/05/09 07:10:23;;;;;;;1.10;0.83;;;10.70;99.90;;;;;;4934048;29;20207;-95
2023/05/09 07:12:54;;;;;;;1.73;0.97;;;10.60;99.90;;;;;;4933860;29;20209;-95
2023/05/09 07:15:28;;;;;;;1.97;0.93;;;10.60;99.90;;;;;;4940067;29;20710;-95
2023/05/09 07:18:10;;;;;;;1.73;0.90;;;10.60;99.90;;;;;;4940733;28;20221;-96
2023/05/09 07:20:42;;;;;;;1.70;0.90;;;10.60;99.90;;;;;;4950989;29;20278;-95
2023/05/09 07:23:21;;;;;;;4.00;1.20;;;10.60;99.90;;;;;;4943474;29;20216;-96
2023/05/09 07:26:00;;;;;;;2.67;1.00;;;10.50;99.90;;;;;;4942930;29;20681;-95
2023/05/09 07:28:31;;;;;;;2.63;1.13;;;10.50;99.90;;;;;;4940486;29;20216;-94
2023/05/09 07:31:04;;;;;;;3.73;1.10;;;10.50;99.90;;;;;;4939757;29;20204;-95
2023/05/09 07:33:36;;;;;;;3.07;1.10;;;10.40;99.90;;;;;;4945794;29;20208;-95
2023/05/09 07:36:11;;;;;;;2.00;0.90;;;10.40;99.90;;;;;;4944814;29;20662;-95
2023/05/09 07:38:49;;;;;;;3.03;1.10;;;10.30;99.90;;;;;;4934097;28;20217;-94
2023/05/09 07:41:21;;;;;;;3.33;1.47;;;10.30;99.90;;;;;;4930513;29;20343;-95
2023/05/09 07:43:52;;;;;;;1.00;0.80;;;10.20;99.90;;;;;;4922784;29;20224;-95
2023/05/09 07:46:26;;;;;;;3.63;1.10;;;10.20;99.90;;;;;;4937849;29;20704;-95
2023/05/09 07:48:58;;;;;;;2.83;1.20;;;10.10;99.90;;;;;;4942571;29;20211;-95
2023/05/09 07:51:31;;;;;;;1.93;1.07;;;10.10;99.90;;;;;;4941781;29;20573;-95
2023/05/09 07:54:05;;;;;;;2.90;1.00;;;10.10;99.90;;;;;;4948407;29;20188;-96
2023/05/09 07:56:37;;;;;;;2.20;1.10;;;10.10;99.90;;;;;;4953875;29;20199;-94
2023/05/09 07:59:09;;;;;;;3.20;1.43;;;10.20;99.90;;;;;;4956706;29;20227;-94
2023/05/09 08:01:41;;;;;;;3.53;0.83;;;10.20;99.90;;;;;;4943071;29;20338;-95
2023/05/09 08:04:13;;;;;;;4.77;1.07;;;10.20;99.90;;;;;;4940399;28;20224;-94
2023/05/09 08:06:45;;;;;;;2.40;0.90;;;10.30;99.90;;;;;;4942691;28;20205;-93
2023/05/09 08:09:22;;;;;;;2.57;0.90;;;10.40;99.90;;;;;;4947732;29;20725;-95
2023/05/09 08:11:56;;;;;;;3.37;1.10;;;10.40;99.90;;;;;;4942137;29;20649;-96
2023/05/09 08:14:28;;;;;;;7.40;1.07;;;10.40;99.90;;;;;;4942735;29;20208;-95
2023/05/09 08:17:00;;;;;;;1.93;0.93;;;10.40;99.90;;;;;;4938706;28;20212;-94
2023/05/09 08:19:35;;;;;;;2.47;0.83;;;10.40;99.90;;;;;;4940143;29;20223;-94
2023/05/09 08:22:07;;;;;;;1.73;1.07;;;10.40;99.90;;;;;;4941069;29;20262;-95
2023/05/09 08:24:45;;;;;;;3.93;1.07;;;10.30;99.90;;;;;;4941716;29;20240;-95
2023/05/09 08:27:20;;;;;;;3.90;1.10;;;10.30;99.90;;;;;;4925187;29;20274;-93
2023/05/09 08:29:54;;;;;;;3.83;0.93;;;10.30;99.90;;;;;;4928546;29;20219;-95
2023/05/09 08:32:26;;;;;;;2.80;1.00;;;10.20;99.90;;;;;;4937646;29;20220;-95
2023/05/09 08:34:58;;;;;;;2.40;0.97;;;10.20;99.90;;;;;;4931836;29;20212;-95
2023/05/09 08:37:30;;;;;;;2.93;1.20;;;10.20;99.90;;;;;;4946377;29;20221;-94
2023/05/09 08:40:06;;;;;;;1.83;0.90;;;10.20;99.90;;;;;;4945858;29;20201;-96
2023/05/09 08:42:39;;;;;;;4.53;1.30;;;10.20;99.90;;;;;;4941620;29;20646;-95
2023/05/09 08:45:19;;;;;;;3.30;1.10;;;10.10;99.90;;;;;;4936483;29;20204;-96
2023/05/09 08:47:51;;;;;;;2.10;1.13;;;10.10;99.90;;;;;;4942443;28;20223;-95
2023/05/09 08:50:26;;;;;;;1.70;1.10;;;10.00;99.90;;;;;;4941137;28;20306;-95
2023/05/09 08:52:59;;;;;;;2.13;1.30;;;9.90;99.90;;;;;;4939427;29;20212;-95
2023/05/09 08:55:36;;;;;;;3.37;1.00;;;9.90;99.90;;;;;;4930054;29;20343;-96
2023/05/09 08:58:09;;;;;;;2.77;1.10;;;9.90;99.90;;;;;;4938189;29;20267;-96
2023/05/09 09:00:42;;;;;;;4.20;1.17;;;9.80;99.90;;;;;;4939771;29;20223;-95
2023/05/09 09:03:14;;;;;;;1.50;1.00;;;9.80;99.90;;;;;;4940610;29;20232;-95
2023/05/09 09:05:47;;;;;;;2.30;1.10;;;9.70;99.90;;;;;;4940570;29;20212;-96
2023/05/09 09:08:20;;;;;;;2.27;1.07;;;9.70;99.90;;;;;;4939344;29;20275;-95
2023/05/09 09:10:56;;;;;;;1.63;1.00;;;9.60;99.90;;;;;;4937731;29;20211;-95
2023/05/09 09:13:28;;;;;;;2.80;1.03;;;9.50;99.90;;;;;;4938034;28;20212;-94
2023/05/09 09:16:05;;;;;;;2.07;0.97;;;9.50;99.90;;;;;;4919703;29;20220;-95
2023/05/09 09:18:38;;;;;;;2.67;1.20;;;9.40;99.90;;;;;;4931361;29;20284;-95
2023/05/09 09:21:12;;;;;;;3.07;1.30;;;9.40;99.90;;;;;;4924169;29;20225;-96
2023/05/09 09:23:47;;;;;;;3.37;1.10;;;9.30;99.90;;;;;;4923610;29;20212;-96
2023/05/09 09:26:23;;;;;;;2.70;1.20;;;9.30;99.90;;;;;;4920739;29;20213;-95
2023/05/09 09:28:56;;;;;;;3.33;1.23;;;9.30;99.90;;;;;;4931304;29;20661;-95
2023/05/09 09:31:32;;;;;;;2.33;0.90;;;9.30;99.90;;;;;;4936300;29;20220;-95
2023/05/09 09:34:03;;;;;;;3.80;1.00;;;9.30;99.90;;;;;;4939854;29;20216;-96
2023/05/09 09:36:35;;;;;;;3.10;1.17;;;9.30;99.90;;;;;;4939784;28;20736;-95
2023/05/09 09:39:08;;;;;;;2.53;1.17;;;9.30;99.90;;;;;;4938998;29;20212;-96
2023/05/09 09:41:43;;;;;;;3.47;1.10;;;9.30;99.90;;;;;;4940098;29;20224;-96
2023/05/09 09:44:16;;;;;;;3.20;1.20;;;9.30;99.90;;;;;;4939410;29;20243;-96
2023/05/09 09:46:49;;;;;;;2.07;0.97;;;9.40;99.90;;;;;;4939709;29;20228;-96
2023/05/09 09:49:25;;;;;;;4.80;1.30;;;9.40;99.90;;;;;;4939079;29;20208;-96
2023/05/09 09:51:58;;;;;;;2.47;1.20;;;9.40;99.90;;;;;;4931193;29;20221;-96
2023/05/09 09:54:32;;;;;;;3.60;1.37;;;9.40;99.90;;;;;;4933638;29;20676;-96
2023/05/09 09:57:06;;;;;;;5.30;1.30;;;9.50;99.90;;;;;;4930090;29;20213;-96
2023/05/09 09:59:38;;;;;;;3.13;1.20;;;9.50;99.90;;;;;;4946040;29;20211;-96
2023/05/09 10:02:12;;;;;;;4.30;1.37;;;9.50;99.90;;;;;;4953544;29;20229;-96
2023/05/09 10:04:43;;;;;;;2.33;0.97;;;9.50;99.90;;;;;;4956249;29;20196;-96
2023/05/09 10:07:16;;;;;;;1.97;1.10;;;9.60;99.90;;;;;;4942983;29;20224;-96
2023/05/09 10:09:48;;;;;;;2.77;1.20;;;9.70;99.90;;;;;;4923477;29;20217;-96
2023/05/09 10:12:22;;;;;;;4.73;1.13;;;9.70;99.90;;;;;;4929297;29;20235;-95
2023/05/09 10:14:56;;;;;;;5.57;1.40;;;9.70;99.90;;;;;;4938936;28;20672;-95
2023/05/09 10:17:31;;;;;;;3.30;0.90;;;9.70;99.90;;;;;;4923127;29;20220;-94
2023/05/09 10:20:08;;;;;;;2.33;1.00;;;9.50;99.90;;;;;;4924205;29;20211;-96
2023/05/09 10:22:41;;;;;;;2.27;1.20;;;9.40;99.90;;;;;;4935615;29;20259;-96
2023/05/09 10:25:20;;;;;;;2.17;0.90;;;9.30;99.90;;;;;;4942903;28;20219;-93
2023/05/09 10:28:02;;;;;;;1.73;1.23;;;9.30;99.90;;;;;;4932631;28;20208;-95
2023/05/09 10:30:41;;;;;;;3.60;1.20;;;9.30;99.90;;;;;;4941340;29;20729;-95
2023/05/09 10:33:17;;;;;;;3.37;1.30;;;9.40;99.90;;;;;;4941394;29;20556;-96
2023/05/09 10:35:50;;;;;;;2.23;1.27;;;9.40;99.90;;;;;;4941852;29;20247;-95
2023/05/09 10:38:24;;;;;;;2.67;1.10;;;9.50;99.90;;;;;;4928938;29;20213;-96
2023/05/09 10:40:56;;;;;;;2.93;1.17;;;9.50;99.90;;;;;;4933054;29;20256;-96
2023/05/09 10:43:32;;;;;;;4.37;1.30;;;9.50;99.90;;;;;;4939167;28;20322;-95
2023/05/09 10:46:07;;;;;;;3.47;1.10;;;9.50;99.90;;;;;;4930288;29;20295;-95
2023/05/09 10:48:46;;;;;;;4.23;1.43;;;9.60;99.90;;;;;;4929537;29;20658;-96
2023/05/09 10:51:20;;;;;;;3.50;1.30;;;9.60;99.90;;;;;;4928308;29;20220;-96
2023/05/09 10:53:58;;;;;;;1.57;0.83;;;9.70;99.90;;;;;;4922936;29;20216;-96
2023/05/09 10:56:35;;;;;;;2.13;1.17;;;9.70;99.90;;;;;;4923641;29;20240;-94
2023/05/09 10:59:29;;;;;;;2.23;0.93;;;9.60;99.90;;;;;;4940507;29;20219;-96
2023/05/09 11:02:02;;;;;;;2.77;1.03;;;9.70;99.90;;;;;;4930457;29;20304;-95
2023/05/09 11:04:36;;;;;;;3.07;1.20;;;9.80;99.90;;;;;;4922701;29;20241;-96
2023/05/09 11:07:25;;;;;;;2.93;1.10;;;9.80;99.90;;;;;;4932354;29;20580;-95
2023/05/09 11:10:10;;;;;;;2.07;1.30;;;9.80;99.90;;;;;;4940975;29;20200;-96
2023/05/09 11:12:57;;;;;;;2.10;0.93;;;9.80;99.90;;;;;;4941163;28;20227;-96
2023/05/09 11:15:32;;;;;;;2.03;1.00;;;9.80;99.90;;;;;;4941330;29;20220;-96
2023/05/09 11:18:10;;;;;;;2.33;1.00;;;9.80;99.90;;;;;;4921415;29;20241;-96
2023/05/09 11:20:50;;;;;;;2.53;1.20;;;9.80;99.90;;;;;;4921378;29;20213;-95
2023/05/09 11:23:23;;;;;;;4.17;1.30;;;9.80;99.90;;;;;;4922410;29;20228;-96
2023/05/09 11:25:55;;;;;;;3.27;0.90;;;9.80;99.90;;;;;;4922209;29;20208;-96
2023/05/09 11:28:30;;;;;;;3.23;1.17;;;9.70;99.90;;;;;;4921485;29;20209;-95
2023/05/09 11:31:14;;;;;;;1.17;0.80;;;9.70;99.90;;;;;;4937047;29;20203;-95
2023/05/09 11:33:47;;;;;;;3.43;1.20;;;9.70;99.90;;;;;;4941514;29;20208;-95
2023/05/09 11:36:32;;;;;;;2.53;0.90;;;9.70;99.90;;;;;;4941011;29;20216;-95
2023/05/09 11:39:10;;;;;;;3.57;1.30;;;9.80;99.90;;;;;;4941689;28;20248;-94
2023/05/09 11:41:43;;;;;;;3.33;1.47;;;9.80;99.90;;;;;;4937533;29;20650;-96
2023/05/09 11:44:17;;;;;;;2.27;1.20;;;9.80;99.90;;;;;;4922289;29;20232;-93
2023/05/09 11:46:55;;;;;;;4.80;1.20;;;9.80;99.90;;;;;;4923311;29;20227;-95
2023/05/09 11:49:29;;;;;;;2.87;1.20;;;9.70;99.90;;;;;;4921807;29;20217;-96
2023/05/09 11:52:01;;;;;;;2.53;0.97;;;9.70;99.90;;;;;;4933757;29;20211;-96
2023/05/09 11:54:37;;;;;;;2.00;1.00;;;9.70;99.90;;;;;;4941842;28;20220;-96
2023/05/09 11:57:16;;;;;;;2.00;0.87;;;9.70;99.90;;;;;;4940089;29;20251;-96
2023/05/09 11:59:49;;;;;;;2.70;1.00;;;9.80;99.90;;;;;;4940748;29;20208;-96
2023/05/09 12:02:27;;;;;;;2.43;1.20;;;9.80;99.90;;;;;;4940469;29;20208;-96
2023/05/09 12:05:08;;;;;;;4.27;1.40;;;9.80;99.90;;;;;;4954240;29;20196;-96
2023/05/09 12:07:40;;;;;;;2.57;1.00;;;9.80;99.90;;;;;;4959626;29;20252;-96
2023/05/09 12:10:14;;;;;;;2.70;1.10;;;9.80;99.90;;;;;;4954649;28;20213;-96
2023/05/09 12:12:47;;;;;;;2.00;1.10;;;9.80;99.90;;;;;;4942089;29;20350;-95
2023/05/09 12:15:20;;;;;;;2.27;1.33;;;9.80;99.90;;;;;;4941239;29;20213;-96
2023/05/09 12:18:05;;;;;;;3.23;1.20;;;9.90;99.90;;;;;;4939068;29;20709;-96
2023/05/09 12:20:46;;;;;;;3.17;1.27;;;9.80;99.90;;;;;;4922263;29;20236;-96
2023/05/09 12:23:20;;;;;;;4.70;1.23;;;9.90;99.90;;;;;;4921241;29;20243;-96
2023/05/09 12:25:56;;;;;;;3.87;1.10;;;9.90;99.90;;;;;;4921987;29;20237;-95
2023/05/09 12:28:28;;;;;;;1.67;1.10;;;9.80;99.90;;;;;;4920836;29;20245;-96
2023/05/09 12:31:00;;;;;;;3.90;1.30;;;9.80;99.90;;;;;;4921924;29;20216;-95
2023/05/09 12:33:34;;;;;;;1.83;1.10;;;9.90;99.90;;;;;;4937750;29;20204;-94
2023/05/09 12:36:08;;;;;;;2.90;1.10;;;9.90;99.90;;;;;;4921829;29;20208;-94
2023/05/09 12:38:42;;;;;;;1.60;1.10;;;9.90;99.90;;;;;;4921122;29;20220;-95
2023/05/09 12:41:13;;;;;;;2.10;1.20;;;9.90;99.90;;;;;;4921782;29;20213;-95
2023/05/09 12:44:08;;;;;;;4.57;1.33;;;9.90;99.90;;;;;;4940634;29;20327;-96
2023/05/09 12:46:40;;;;;;;4.43;1.60;;;9.90;99.90;;;;;;4941044;28;20689;-95
2023/05/09 12:49:24;;;;;;;2.17;1.33;;;9.90;99.90;;;;;;4939472;29;20244;-96
2023/05/09 12:51:58;;;;;;;2.07;1.40;;;9.90;99.90;;;;;;4937519;29;20208;-94
2023/05/09 12:54:34;;;;;;;2.67;1.33;;;9.90;99.90;;;;;;4940436;29;20212;-96
2023/05/09 12:57:06;;;;;;;3.90;1.30;;;10.00;99.90;;;;;;4941357;28;20216;-95
2023/05/09 12:59:39;;;;;;;1.97;1.37;;;10.00;99.90;;;;;;4942351;28;20291;-94
2023/05/09 13:02:16;;;;;;;2.07;1.33;;;10.00;99.90;;;;;;4949263;29;20240;-95
2023/05/09 13:05:06;;;;;;;4.83;1.73;;;10.10;99.90;;;;;;4950728;29;20247;-94
2023/05/09 13:07:42;;;;;;;2.77;1.43;;;10.10;99.90;;;;;;4928693;29;20233;-95
2023/05/09 13:10:14;;;;;;;3.47;1.50;;;10.10;99.90;;;;;;4931073;29;20257;-96
2023/05/09 13:12:47;;;;;;;2.20;1.40;;;10.00;99.90;;;;;;4931639;29;20205;-96
2023/05/09 13:15:22;;;;;;;2.53;1.53;;;10.00;99.90;;;;;;4916019;29;20240;-95
2023/05/09 13:17:56;;;;;;;7.43;1.73;;;10.00;99.90;;;;;;4934699;29;20233;-94
2023/05/09 13:20:32;;;;;;;6.30;1.80;;;10.10;99.90;;;;;;4939776;29;20224;-95
2023/05/09 13:23:04;;;;;;;3.17;1.70;;;10.10;99.90;;;;;;4932181;29;20219;-96
2023/05/09 13:25:36;;;;;;;6.53;2.10;;;10.10;99.90;;;;;;4921725;29;20233;-95